sensor_id;sensor_type;location;lat;lon;timestamp;pressure;altitude;pressure_sealevel;temperature;humidity
70781;BME280;59514;48.810;2.134;2022-10-17T00:02:03;100182.84;;;17.97;93.42
70781;BME280;59514;48.810;2.134;2022-10-17T00:04:28;100192.06;;;18.01;93.16
70781;BME280;59514;48.810;2.134;2022-10-17T00:06:54;100198.00;;;18.03;92.83
70781;BME280;59514;48.810;2.134;2022-10-17T00:09:19;100193.38;;;18.04;92.86
70781;BME280;59514;48.810;2.134;2022-10-17T00:11:44;100195.81;;;18.05;92.38
70781;BME280;59514;48.810;2.134;2022-10-17T00:14:09;100193.94;;;18.06;91.77
70781;BME280;59514;48.810;2.134;2022-10-17T00:16:35;100200.19;;;18.06;92.00
70781;BME280;59514;48.810;2.134;2022-10-17T00:19:03;100198.53;;;18.11;91.93
70781;BME280;59514;48.810;2.134;2022-10-17T00:21:29;100202.06;;;18.11;91.52
70781;BME280;59514;48.810;2.134;2022-10-17T00:23:54;100206.69;;;18.11;91.60
70781;BME280;59514;48.810;2.134;2022-10-17T00:26:20;100205.56;;;18.12;91.48
70781;BME280;59514;48.810;2.134;2022-10-17T00:28:47;100209.41;;;18.11;91.56
70781;BME280;59514;48.810;2.134;2022-10-17T00:31:13;100224.34;;;18.13;90.90
70781;BME280;59514;48.810;2.134;2022-10-17T00:33:39;100221.34;;;18.15;90.64
70781;BME280;59514;48.810;2.134;2022-10-17T00:36:10;100221.88;;;18.17;90.84
70781;BME280;59514;48.810;2.134;2022-10-17T00:38:38;100223.78;;;18.16;90.49
70781;BME280;59514;48.810;2.134;2022-10-17T00:41:04;100223.22;;;18.19;90.35
70781;BME280;59514;48.810;2.134;2022-10-17T00:43:48;100222.41;;;18.19;90.19
70781;BME280;59514;48.810;2.134;2022-10-17T00:46:13;100207.72;;;18.20;90.71
70781;BME280;59514;48.810;2.134;2022-10-17T00:48:39;100203.94;;;18.21;90.41
70781;BME280;59514;48.810;2.134;2022-10-17T00:51:05;100208.53;;;18.20;89.96
70781;BME280;59514;48.810;2.134;2022-10-17T00:53:30;100209.66;;;18.19;90.32
70781;BME280;59514;48.810;2.134;2022-10-17T00:55:56;100208.81;;;18.19;90.04
70781;BME280;59514;48.810;2.134;2022-10-17T00:58:21;100209.91;;;18.18;90.17
70781;BME280;59514;48.810;2.134;2022-10-17T01:00:47;100220.78;;;18.18;90.18
70781;BME280;59514;48.810;2.134;2022-10-17T01:03:12;100219.69;;;18.19;90.26
70781;BME280;59514;48.810;2.134;2022-10-17T01:05:38;100218.88;;;18.18;89.97
70781;BME280;59514;48.810;2.134;2022-10-17T01:08:04;100216.97;;;18.19;89.60
70781;BME280;59514;48.810;2.134;2022-10-17T01:10:37;100209.91;;;18.18;90.10
70781;BME280;59514;48.810;2.134;2022-10-17T01:13:13;100220.22;;;18.16;89.95
70781;BME280;59514;48.810;2.134;2022-10-17T01:15:49;100219.16;;;18.17;89.86
70781;BME280;59514;48.810;2.134;2022-10-17T01:18:30;100226.50;;;18.16;89.99
70781;BME280;59514;48.810;2.134;2022-10-17T01:21:14;100233.03;;;18.15;89.78
70781;BME280;59514;48.810;2.134;2022-10-17T01:24:07;100240.91;;;18.17;89.84
70781;BME280;59514;48.810;2.134;2022-10-17T01:32:34;100236.00;;;18.14;90.19
70781;BME280;59514;48.810;2.134;2022-10-17T01:35:17;100237.41;;;18.11;90.23
70781;BME280;59514;48.810;2.134;2022-10-17T01:37:48;100240.13;;;18.11;90.18
70781;BME280;59514;48.810;2.134;2022-10-17T01:40:26;100240.91;;;18.12;89.74
70781;BME280;59514;48.810;2.134;2022-10-17T01:43:02;100248.53;;;18.09;89.91
70781;BME280;59514;48.810;2.134;2022-10-17T01:45:37;100247.44;;;18.11;89.99
70781;BME280;59514;48.810;2.134;2022-10-17T01:48:10;100253.41;;;18.07;89.55
70781;BME280;59514;48.810;2.134;2022-10-17T01:50:42;100250.16;;;18.05;89.81
70781;BME280;59514;48.810;2.134;2022-10-17T01:53:23;100255.59;;;18.05;90.39
70781;BME280;59514;48.810;2.134;2022-10-17T01:55:53;100246.91;;;18.03;89.85
70781;BME280;59514;48.810;2.134;2022-10-17T01:58:27;100251.56;;;18.03;89.64
70781;BME280;59514;48.810;2.134;2022-10-17T02:00:55;100244.19;;;18.03;89.43
70781;BME280;59514;48.810;2.134;2022-10-17T02:03:23;100233.59;;;18.02;89.71
70781;BME280;59514;48.810;2.134;2022-10-17T02:05:50;100231.19;;;18.00;89.42
70781;BME280;59514;48.810;2.134;2022-10-17T02:08:27;100237.72;;;17.99;89.37
70781;BME280;59514;48.810;2.134;2022-10-17T02:10:58;100252.38;;;17.98;89.35
70781;BME280;59514;48.810;2.134;2022-10-17T02:14:30;100240.44;;;17.99;88.97
70781;BME280;59514;48.810;2.134;2022-10-17T02:30:00;100222.50;;;17.98;87.83
70781;BME280;59514;48.810;2.134;2022-10-17T02:32:37;100213.81;;;17.96;87.93
70781;BME280;59514;48.810;2.134;2022-10-17T02:35:09;100207.81;;;17.94;88.16
70781;BME280;59514;48.810;2.134;2022-10-17T02:37:36;100220.88;;;17.92;88.32
70781;BME280;59514;48.810;2.134;2022-10-17T02:40:04;100230.66;;;17.93;87.70
70781;BME280;59514;48.810;2.134;2022-10-17T02:42:31;100231.19;;;17.95;87.48
70781;BME280;59514;48.810;2.134;2022-10-17T02:45:01;100226.84;;;17.94;87.33
70781;BME280;59514;48.810;2.134;2022-10-17T02:47:53;100244.78;;;17.95;87.20
70781;BME280;59514;48.810;2.134;2022-10-17T02:50:22;100235.00;;;17.94;87.13
70781;BME280;59514;48.810;2.134;2022-10-17T02:53:00;100243.44;;;17.93;87.22
70781;BME280;59514;48.810;2.134;2022-10-17T02:55:35;100236.63;;;17.90;87.65
70781;BME280;59514;48.810;2.134;2022-10-17T02:58:06;100233.38;;;17.88;87.30
70781;BME280;59514;48.810;2.134;2022-10-17T03:00:33;100233.38;;;17.88;87.31
70781;BME280;59514;48.810;2.134;2022-10-17T03:02:59;100238.28;;;17.86;86.98
70781;BME280;59514;48.810;2.134;2022-10-17T03:05:28;100245.06;;;17.84;87.49
70781;BME280;59514;48.810;2.134;2022-10-17T03:07:54;100245.34;;;17.82;87.29
70781;BME280;59514;48.810;2.134;2022-10-17T03:10:20;100242.09;;;17.80;86.99
70781;BME280;59514;48.810;2.134;2022-10-17T03:12:46;100231.22;;;17.80;86.71
70781;BME280;59514;48.810;2.134;2022-10-17T03:15:12;100237.22;;;17.77;86.65
70781;BME280;59514;48.810;2.134;2022-10-17T03:17:37;100243.44;;;17.78;86.37
70781;BME280;59514;48.810;2.134;2022-10-17T03:20:03;100241.00;;;17.76;86.85
70781;BME280;59514;48.810;2.134;2022-10-17T03:22:29;100238.88;;;17.73;86.26
70781;BME280;59514;48.810;2.134;2022-10-17T03:24:54;100251.63;;;17.73;86.26
70781;BME280;59514;48.810;2.134;2022-10-17T03:27:20;100257.88;;;17.73;86.68
70781;BME280;59514;48.810;2.134;2022-10-17T03:29:45;100272.53;;;17.72;86.50
70781;BME280;59514;48.810;2.134;2022-10-17T03:32:10;100276.34;;;17.71;86.75
70781;BME280;59514;48.810;2.134;2022-10-17T03:34:36;100286.66;;;17.69;86.39
70781;BME280;59514;48.810;2.134;2022-10-17T03:37:01;100279.31;;;17.70;86.57
70781;BME280;59514;48.810;2.134;2022-10-17T03:39:27;100285.84;;;17.69;87.01
70781;BME280;59514;48.810;2.134;2022-10-17T03:41:52;100286.91;;;17.68;86.92
70781;BME280;59514;48.810;2.134;2022-10-17T03:44:17;100300.50;;;17.68;86.35
70781;BME280;59514;48.810;2.134;2022-10-17T03:46:42;100297.78;;;17.68;86.40
70781;BME280;59514;48.810;2.134;2022-10-17T03:49:08;100304.59;;;17.65;86.98
70781;BME280;59514;48.810;2.134;2022-10-17T03:51:34;100303.78;;;17.65;86.60
70781;BME280;59514;48.810;2.134;2022-10-17T03:53:59;100301.34;;;17.63;86.67
70781;BME280;59514;48.810;2.134;2022-10-17T03:56:25;100304.06;;;17.63;86.46
70781;BME280;59514;48.810;2.134;2022-10-17T03:58:51;100305.13;;;17.62;86.64
70781;BME280;59514;48.810;2.134;2022-10-17T04:01:17;100314.91;;;17.63;86.12
70781;BME280;59514;48.810;2.134;2022-10-17T04:03:43;100305.66;;;17.64;86.50
70781;BME280;59514;48.810;2.134;2022-10-17T04:06:11;100305.94;;;17.63;86.46
70781;BME280;59514;48.810;2.134;2022-10-17T04:08:36;100302.69;;;17.61;86.17
70781;BME280;59514;48.810;2.134;2022-10-17T04:11:04;100311.66;;;17.61;86.36
70781;BME280;59514;48.810;2.134;2022-10-17T04:13:31;100311.66;;;17.61;86.15
70781;BME280;59514;48.810;2.134;2022-10-17T04:15:58;100312.72;;;17.60;86.07
70781;BME280;59514;48.810;2.134;2022-10-17T04:18:24;100310.00;;;17.60;86.36
70781;BME280;59514;48.810;2.134;2022-10-17T04:20:49;100314.63;;;17.60;86.18
70781;BME280;59514;48.810;2.134;2022-10-17T04:23:15;100315.44;;;17.60;86.33
70781;BME280;59514;48.810;2.134;2022-10-17T04:25:40;100317.63;;;17.58;86.10
70781;BME280;59514;48.810;2.134;2022-10-17T04:28:06;100325.75;;;17.58;86.18
70781;BME280;59514;48.810;2.134;2022-10-17T04:30:31;100327.69;;;17.58;86.27
70781;BME280;59514;48.810;2.134;2022-10-17T04:32:56;100333.34;;;17.56;86.29
70781;BME280;59514;48.810;2.134;2022-10-17T04:35:22;100341.50;;;17.56;85.78
70781;BME280;59514;48.810;2.134;2022-10-17T04:37:47;100343.69;;;17.59;86.04
70781;BME280;59514;48.810;2.134;2022-10-17T04:40:12;100339.59;;;17.62;85.38
70781;BME280;59514;48.810;2.134;2022-10-17T04:42:37;100343.41;;;17.61;85.20
70781;BME280;59514;48.810;2.134;2022-10-17T04:45:04;100341.53;;;17.61;85.12
70781;BME280;59514;48.810;2.134;2022-10-17T04:47:29;100344.25;;;17.61;85.25
70781;BME280;59514;48.810;2.134;2022-10-17T04:49:54;100355.88;;;17.62;85.43
70781;BME280;59514;48.810;2.134;2022-10-17T04:52:20;100370.28;;;17.62;85.15
70781;BME280;59514;48.810;2.134;2022-10-17T04:54:45;100366.50;;;17.63;84.94
70781;BME280;59514;48.810;2.134;2022-10-17T04:57:11;100363.78;;;17.63;85.12
70781;BME280;59514;48.810;2.134;2022-10-17T04:59:36;100370.28;;;17.62;84.88
70781;BME280;59514;48.810;2.134;2022-10-17T05:02:02;100386.59;;;17.62;85.19
70781;BME280;59514;48.810;2.134;2022-10-17T05:04:27;100386.03;;;17.60;86.13
70781;BME280;59514;48.810;2.134;2022-10-17T05:06:52;100400.72;;;17.59;85.84
70781;BME280;59514;48.810;2.134;2022-10-17T05:09:18;100374.63;;;17.58;86.61
70781;BME280;59514;48.810;2.134;2022-10-17T05:11:43;100376.00;;;17.56;86.73
70781;BME280;59514;48.810;2.134;2022-10-17T05:14:14;100388.75;;;17.55;86.75
70781;BME280;59514;48.810;2.134;2022-10-17T05:16:39;100376.81;;;17.56;87.30
70781;BME280;59514;48.810;2.134;2022-10-17T05:19:05;100369.75;;;17.55;87.29
70781;BME280;59514;48.810;2.134;2022-10-17T05:21:32;100380.63;;;17.55;87.17
70781;BME280;59514;48.810;2.134;2022-10-17T05:23:58;100393.66;;;17.53;87.80
70781;BME280;59514;48.810;2.134;2022-10-17T05:26:24;100388.75;;;17.50;87.83
70781;BME280;59514;48.810;2.134;2022-10-17T05:28:53;100389.84;;;17.49;87.70
70781;BME280;59514;48.810;2.134;2022-10-17T05:31:18;100382.50;;;17.50;88.22
70781;BME280;59514;48.810;2.134;2022-10-17T05:33:44;100390.88;;;17.48;87.87
70781;BME280;59514;48.810;2.134;2022-10-17T05:36:10;100380.56;;;17.45;88.38
70781;BME280;59514;48.810;2.134;2022-10-17T05:38:35;100391.44;;;17.45;88.37
70781;BME280;59514;48.810;2.134;2022-10-17T05:41:02;100397.94;;;17.44;89.07
70781;BME280;59514;48.810;2.134;2022-10-17T05:43:28;100384.91;;;17.41;89.44
70781;BME280;59514;48.810;2.134;2022-10-17T05:45:54;100385.44;;;17.38;89.91
70781;BME280;59514;48.810;2.134;2022-10-17T05:48:20;100393.03;;;17.36;90.45
70781;BME280;59514;48.810;2.134;2022-10-17T05:50:46;100364.78;;;17.32;90.75
70781;BME280;59514;48.810;2.134;2022-10-17T05:53:12;100371.84;;;17.28;91.57
70781;BME280;59514;48.810;2.134;2022-10-17T05:55:37;100371.28;;;17.26;91.56
70781;BME280;59514;48.810;2.134;2022-10-17T05:58:02;100364.25;;;17.25;91.62
70781;BME280;59514;48.810;2.134;2022-10-17T06:00:28;100347.94;;;17.20;92.21
70781;BME280;59514;48.810;2.134;2022-10-17T06:02:53;100354.75;;;17.17;92.70
70781;BME280;59514;48.810;2.134;2022-10-17T06:05:19;100356.63;;;17.17;92.25
70781;BME280;59514;48.810;2.134;2022-10-17T06:07:45;100361.78;;;17.18;92.28
70781;BME280;59514;48.810;2.134;2022-10-17T06:10:11;100377.25;;;17.18;92.75
70781;BME280;59514;48.810;2.134;2022-10-17T06:12:39;100382.44;;;17.19;92.09
70781;BME280;59514;48.810;2.134;2022-10-17T06:15:04;100383.78;;;17.17;92.73
70781;BME280;59514;48.810;2.134;2022-10-17T06:17:31;100394.34;;;17.13;93.04
70781;BME280;59514;48.810;2.134;2022-10-17T06:19:56;100399.50;;;17.15;92.72
70781;BME280;59514;48.810;2.134;2022-10-17T06:22:22;100402.75;;;17.17;92.52
70781;BME280;59514;48.810;2.134;2022-10-17T06:24:47;100404.66;;;17.16;92.71
70781;BME280;59514;48.810;2.134;2022-10-17T06:27:12;100420.13;;;17.16;93.33
70781;BME280;59514;48.810;2.134;2022-10-17T06:29:38;100422.84;;;17.16;92.71
70781;BME280;59514;48.810;2.134;2022-10-17T06:32:04;100421.75;;;17.17;92.81
70781;BME280;59514;48.810;2.134;2022-10-17T06:34:29;100417.94;;;17.18;93.06
70781;BME280;59514;48.810;2.134;2022-10-17T06:36:54;100415.00;;;17.19;93.27
70781;BME280;59514;48.810;2.134;2022-10-17T06:39:20;100425.00;;;17.19;92.92
70781;BME280;59514;48.810;2.134;2022-10-17T06:41:45;100425.00;;;17.19;93.02
70781;BME280;59514;48.810;2.134;2022-10-17T06:44:11;100448.34;;;17.20;93.01
70781;BME280;59514;48.810;2.134;2022-10-17T06:46:39;100461.66;;;17.21;93.40
70781;BME280;59514;48.810;2.134;2022-10-17T06:49:05;100452.69;;;17.21;93.40
70781;BME280;59514;48.810;2.134;2022-10-17T06:51:34;100463.28;;;17.22;93.59
70781;BME280;59514;48.810;2.134;2022-10-17T06:54:00;100465.19;;;17.22;93.62
70781;BME280;59514;48.810;2.134;2022-10-17T06:56:25;100474.13;;;17.22;93.35
70781;BME280;59514;48.810;2.134;2022-10-17T06:58:51;100484.16;;;17.22;93.15
70781;BME280;59514;48.810;2.134;2022-10-17T07:01:17;100490.41;;;17.22;93.95
70781;BME280;59514;48.810;2.134;2022-10-17T07:03:42;100495.03;;;17.22;93.88
70781;BME280;59514;48.810;2.134;2022-10-17T07:06:08;100507.25;;;17.24;93.75
70781;BME280;59514;48.810;2.134;2022-10-17T07:08:37;100520.00;;;17.24;93.61
70781;BME280;59514;48.810;2.134;2022-10-17T07:11:15;100514.56;;;17.24;93.69
70781;BME280;59514;48.810;2.134;2022-10-17T07:13:41;100521.66;;;17.25;93.43
70781;BME280;59514;48.810;2.134;2022-10-17T07:16:06;100530.06;;;17.29;93.90
70781;BME280;59514;48.810;2.134;2022-10-17T07:18:32;100536.59;;;17.28;93.54
70781;BME280;59514;48.810;2.134;2022-10-17T07:20:58;100539.84;;;17.30;93.64
70781;BME280;59514;48.810;2.134;2022-10-17T07:23:24;100546.91;;;17.31;94.10
70781;BME280;59514;48.810;2.134;2022-10-17T07:25:49;100553.72;;;17.33;93.92
70781;BME280;59514;48.810;2.134;2022-10-17T07:28:15;100552.63;;;17.34;93.71
70781;BME280;59514;48.810;2.134;2022-10-17T07:30:40;100565.94;;;17.36;93.75
70781;BME280;59514;48.810;2.134;2022-10-17T07:33:06;100576.53;;;17.37;94.11
70781;BME280;59514;48.810;2.134;2022-10-17T07:35:32;100563.78;;;17.38;93.95
70781;BME280;59514;48.810;2.134;2022-10-17T07:37:57;100578.16;;;17.38;93.90
70781;BME280;59514;48.810;2.134;2022-10-17T07:40:23;100587.41;;;17.42;93.72
70781;BME280;59514;48.810;2.134;2022-10-17T07:42:48;100592.31;;;17.45;93.70
70781;BME280;59514;48.810;2.134;2022-10-17T07:45:13;100592.88;;;17.47;93.81
70781;BME280;59514;48.810;2.134;2022-10-17T07:47:40;100596.16;;;17.49;93.35
70781;BME280;59514;48.810;2.134;2022-10-17T07:50:05;100602.97;;;17.52;93.33
70781;BME280;59514;48.810;2.134;2022-10-17T07:52:31;100615.50;;;17.58;93.13
70781;BME280;59514;48.810;2.134;2022-10-17T07:54:56;100608.97;;;17.59;93.32
70781;BME280;59514;48.810;2.134;2022-10-17T07:57:22;100613.59;;;17.63;92.91
70781;BME280;59514;48.810;2.134;2022-10-17T07:59:47;100619.31;;;17.67;92.27
70781;BME280;59514;48.810;2.134;2022-10-17T08:02:21;100623.41;;;17.69;91.92
70781;BME280;59514;48.810;2.134;2022-10-17T08:04:47;100621.81;;;17.73;91.80
70781;BME280;59514;48.810;2.134;2022-10-17T08:07:13;100627.50;;;17.77;91.75
70781;BME280;59514;48.810;2.134;2022-10-17T08:09:40;100631.06;;;17.82;91.10
70781;BME280;59514;48.810;2.134;2022-10-17T08:12:05;100642.19;;;17.86;90.99
70781;BME280;59514;48.810;2.134;2022-10-17T08:14:33;100643.31;;;17.90;90.47
70781;BME280;59514;48.810;2.134;2022-10-17T08:16:58;100652.56;;;17.94;90.40
70781;BME280;59514;48.810;2.134;2022-10-17T08:19:23;100641.72;;;17.99;90.83
70781;BME280;59514;48.810;2.134;2022-10-17T08:21:49;100654.50;;;18.03;90.35
70781;BME280;59514;48.810;2.134;2022-10-17T08:24:15;100664.00;;;18.06;90.48
70781;BME280;59514;48.810;2.134;2022-10-17T08:26:41;100668.09;;;18.08;90.52
70781;BME280;59514;48.810;2.134;2022-10-17T08:29:12;100662.41;;;18.10;90.32
70781;BME280;59514;48.810;2.134;2022-10-17T08:31:38;100671.38;;;18.11;90.04
70781;BME280;59514;48.810;2.134;2022-10-17T08:34:03;100674.91;;;18.11;90.09
70781;BME280;59514;48.810;2.134;2022-10-17T08:36:28;100672.47;;;18.15;90.62
70781;BME280;59514;48.810;2.134;2022-10-17T08:38:54;100681.72;;;18.19;89.70
70781;BME280;59514;48.810;2.134;2022-10-17T08:44:27;100692.88;;;18.22;90.32
70781;BME280;59514;48.810;2.134;2022-10-17T08:46:58;100685.53;;;18.23;90.19
70781;BME280;59514;48.810;2.134;2022-10-17T08:49:32;100691.25;;;18.26;90.23
70781;BME280;59514;48.810;2.134;2022-10-17T08:52:56;100697.81;;;18.30;89.83
70781;BME280;59514;48.810;2.134;2022-10-17T08:54:55;100705.69;;;18.32;89.87
70781;BME280;59514;48.810;2.134;2022-10-17T08:57:21;100708.41;;;18.32;89.96
70781;BME280;59514;48.810;2.134;2022-10-17T08:59:51;100707.31;;;18.33;89.77
70781;BME280;59514;48.810;2.134;2022-10-17T09:08:15;100731.53;;;18.29;91.09
70781;BME280;59514;48.810;2.134;2022-10-17T09:10:59;100753.50;;;18.28;91.28
70781;BME280;59514;48.810;2.134;2022-10-17T09:19:22;100762.19;;;18.20;92.46
70781;BME280;59514;48.810;2.134;2022-10-17T09:21:52;100763.53;;;18.17;92.64
70781;BME280;59514;48.810;2.134;2022-10-17T09:24:47;100768.66;;;18.14;92.71
70781;BME280;59514;48.810;2.134;2022-10-17T09:32:40;100773.53;;;18.06;94.01
70781;BME280;59514;48.810;2.134;2022-10-17T09:35:12;100784.69;;;18.05;94.77
70781;BME280;59514;48.810;2.134;2022-10-17T09:37:39;100783.84;;;17.99;95.02
70781;BME280;59514;48.810;2.134;2022-10-17T09:40:07;100791.44;;;17.97;95.46
70781;BME280;59514;48.810;2.134;2022-10-17T09:42:36;100794.16;;;17.97;95.95
70781;BME280;59514;48.810;2.134;2022-10-17T09:47:33;100788.97;;;17.96;97.09
70781;BME280;59514;48.810;2.134;2022-10-17T09:50:09;100781.06;;;17.94;97.81
70781;BME280;59514;48.810;2.134;2022-10-17T09:52:41;100786.78;;;17.93;98.49
70781;BME280;59514;48.810;2.134;2022-10-17T09:55:24;100788.66;;;17.87;98.96
70781;BME280;59514;48.810;2.134;2022-10-17T09:57:59;100785.63;;;17.84;98.91
70781;BME280;59514;48.810;2.134;2022-10-17T10:00:34;100783.72;;;17.84;99.44
70781;BME280;59514;48.810;2.134;2022-10-17T10:03:13;100784.56;;;17.85;99.82
70781;BME280;59514;48.810;2.134;2022-10-17T10:05:40;100779.91;;;17.80;100.00
70781;BME280;59514;48.810;2.134;2022-10-17T10:08:16;100783.44;;;17.81;100.00
70781;BME280;59514;48.810;2.134;2022-10-17T10:10:43;100789.38;;;17.78;100.00
70781;BME280;59514;48.810;2.134;2022-10-17T10:15:38;100805.13;;;17.76;100.00
70781;BME280;59514;48.810;2.134;2022-10-17T10:18:28;100808.13;;;17.74;100.00
70781;BME280;59514;48.810;2.134;2022-10-17T10:21:17;100808.13;;;17.74;100.00
70781;BME280;59514;48.810;2.134;2022-10-17T10:26:42;100817.88;;;17.70;100.00
70781;BME280;59514;48.810;2.134;2022-10-17T10:31:46;100834.97;;;17.71;100.00
70781;BME280;59514;48.810;2.134;2022-10-17T10:34:18;100845.59;;;17.72;100.00
70781;BME280;59514;48.810;2.134;2022-10-17T10:36:52;100853.72;;;17.72;100.00
70781;BME280;59514;48.810;2.134;2022-10-17T10:39:45;100853.22;;;17.75;100.00
70781;BME280;59514;48.810;2.134;2022-10-17T10:42:33;100853.22;;;17.75;100.00
70781;BME280;59514;48.810;2.134;2022-10-17T10:45:15;100858.38;;;17.77;100.00
70781;BME280;59514;48.810;2.134;2022-10-17T10:47:51;100870.66;;;17.79;100.00
70781;BME280;59514;48.810;2.134;2022-10-17T10:50:38;100878.53;;;17.81;100.00
70781;BME280;59514;48.810;2.134;2022-10-17T10:55:53;100883.75;;;17.87;100.00
70781;BME280;59514;48.810;2.134;2022-10-17T11:04:20;100878.91;;;17.94;100.00
70781;BME280;59514;48.810;2.134;2022-10-17T11:06:49;100874.56;;;17.98;100.00
70781;BME280;59514;48.810;2.134;2022-10-17T11:12:00;100875.69;;;18.02;100.00
70781;BME280;59514;48.810;2.134;2022-10-17T11:15:19;100884.69;;;18.08;100.00
70781;BME280;59514;48.810;2.134;2022-10-17T11:20:21;100895.84;;;18.12;100.00
70781;BME280;59514;48.810;2.134;2022-10-17T11:22:57;100897.50;;;18.13;100.00
70781;BME280;59514;48.810;2.134;2022-10-17T11:25:34;100899.94;;;18.14;100.00
70781;BME280;59514;48.810;2.134;2022-10-17T11:28:00;100895.34;;;18.15;100.00
70781;BME280;59514;48.810;2.134;2022-10-17T11:30:37;100901.28;;;18.12;100.00
70781;BME280;59514;48.810;2.134;2022-10-17T11:33:04;100901.28;;;18.12;100.00
70781;BME280;59514;48.810;2.134;2022-10-17T11:35:37;100900.50;;;18.11;100.00
70781;BME280;59514;48.810;2.134;2022-10-17T11:40:57;100890.94;;;18.08;100.00
70781;BME280;59514;48.810;2.134;2022-10-17T11:46:23;100879.25;;;18.08;100.00
70781;BME280;59514;48.810;2.134;2022-10-17T11:51:34;100909.91;;;18.03;100.00
70781;BME280;59514;48.810;2.134;2022-10-17T11:54:10;100930.56;;;17.99;100.00
70781;BME280;59514;48.810;2.134;2022-10-17T11:57:14;100940.09;;;18.02;100.00
70781;BME280;59514;48.810;2.134;2022-10-17T11:59:57;100951.50;;;18.04;100.00
70781;BME280;59514;48.810;2.134;2022-10-17T12:02:56;100954.53;;;18.07;100.00
70781;BME280;59514;48.810;2.134;2022-10-17T12:05:31;100952.91;;;18.06;100.00
70781;BME280;59514;48.810;2.134;2022-10-17T12:08:11;100968.13;;;18.07;100.00
70781;BME280;59514;48.810;2.134;2022-10-17T12:10:53;100968.09;;;18.02;100.00
70781;BME280;59514;48.810;2.134;2022-10-17T12:18:43;100957.00;;;18.09;100.00
70781;BME280;59514;48.810;2.134;2022-10-17T12:21:08;100953.19;;;18.10;100.00
70781;BME280;59514;48.810;2.134;2022-10-17T12:23:34;100955.34;;;18.08;100.00
70781;BME280;59514;48.810;2.134;2022-10-17T12:26:05;100955.34;;;18.08;100.00
70781;BME280;59514;48.810;2.134;2022-10-17T12:33:54;100938.75;;;18.04;100.00
70781;BME280;59514;48.810;2.134;2022-10-17T12:46:50;100929.97;;;17.92;100.00
70781;BME280;59514;48.810;2.134;2022-10-17T12:54:29;100928.34;;;17.91;100.00
70781;BME280;59514;48.810;2.134;2022-10-17T12:56:56;100944.63;;;17.91;100.00
70781;BME280;59514;48.810;2.134;2022-10-17T12:59:27;100954.97;;;17.94;100.00
70781;BME280;59514;48.810;2.134;2022-10-17T13:02:00;100958.25;;;17.96;100.00
70781;BME280;59514;48.810;2.134;2022-10-17T13:04:28;100949.28;;;17.96;100.00
70781;BME280;59514;48.810;2.134;2022-10-17T13:06:57;100947.38;;;17.96;100.00
70781;BME280;59514;48.810;2.134;2022-10-17T13:09:29;100949.03;;;17.97;100.00
70781;BME280;59514;48.810;2.134;2022-10-17T13:11:55;100939.78;;;17.98;100.00
70781;BME280;59514;48.810;2.134;2022-10-17T13:14:22;100943.06;;;18.00;100.00
70781;BME280;59514;48.810;2.134;2022-10-17T13:16:57;100943.06;;;18.00;100.00
70781;BME280;59514;48.810;2.134;2022-10-17T13:19:28;100940.09;;;18.02;100.00
70781;BME280;59514;48.810;2.134;2022-10-17T13:21:56;100939.78;;;17.98;100.00
70781;BME280;59514;48.810;2.134;2022-10-17T13:24:27;100940.31;;;17.95;100.00
70781;BME280;59514;48.810;2.134;2022-10-17T13:26:53;100936.22;;;17.93;100.00
70781;BME280;59514;48.810;2.134;2022-10-17T13:29:19;100947.09;;;17.93;100.00
70781;BME280;59514;48.810;2.134;2022-10-17T13:31:59;100941.66;;;17.93;100.00
70781;BME280;59514;48.810;2.134;2022-10-17T13:34:26;100925.84;;;17.90;100.00
70781;BME280;59514;48.810;2.134;2022-10-17T13:36:54;100942.69;;;17.87;100.00
70781;BME280;59514;48.810;2.134;2022-10-17T13:39:26;100961.13;;;17.85;100.00
70781;BME280;59514;48.810;2.134;2022-10-17T13:41:54;100973.63;;;17.86;100.00
70781;BME280;59514;48.810;2.134;2022-10-17T13:44:23;100981.28;;;17.89;100.00
70781;BME280;59514;48.810;2.134;2022-10-17T13:46:50;100996.19;;;17.86;100.00
70781;BME280;59514;48.810;2.134;2022-10-17T13:49:48;100996.19;;;17.86;100.00
70781;BME280;59514;48.810;2.134;2022-10-17T13:52:18;100992.16;;;17.89;100.00
70781;BME280;59514;48.810;2.134;2022-10-17T13:54:47;100993.22;;;17.88;100.00
70781;BME280;59514;48.810;2.134;2022-10-17T13:57:24;100978.28;;;17.85;100.00
70781;BME280;59514;48.810;2.134;2022-10-17T13:59:57;100989.38;;;17.84;100.00
70781;BME280;59514;48.810;2.134;2022-10-17T14:02:26;100989.06;;;17.80;100.00
70781;BME280;59514;48.810;2.134;2022-10-17T14:07:41;100995.59;;;17.79;100.00
70781;BME280;59514;48.810;2.134;2022-10-17T14:10:38;100996.16;;;17.81;100.00
70781;BME280;59514;48.810;2.134;2022-10-17T14:13:05;100990.72;;;17.81;100.00
70781;BME280;59514;48.810;2.134;2022-10-17T14:15:33;100969.22;;;17.80;100.00
70781;BME280;59514;48.810;2.134;2022-10-17T14:18:02;100963.50;;;17.76;100.00
70781;BME280;59514;48.810;2.134;2022-10-17T14:20:29;100962.66;;;17.76;100.00
70781;BME280;59514;48.810;2.134;2022-10-17T14:22:58;100971.09;;;17.74;100.00
70781;BME280;59514;48.810;2.134;2022-10-17T14:25:36;100972.19;;;17.73;100.00
70781;BME280;59514;48.810;2.134;2022-10-17T14:28:12;100964.59;;;17.75;100.00
70781;BME280;59514;48.810;2.134;2022-10-17T14:30:48;100970.53;;;17.72;100.00
70781;BME280;59514;48.810;2.134;2022-10-17T14:33:23;100979.75;;;17.71;100.00
70781;BME280;59514;48.810;2.134;2022-10-17T14:35:52;100980.00;;;17.70;100.00
70781;BME280;59514;48.810;2.134;2022-10-17T14:38:19;100977.53;;;17.68;100.00
70781;BME280;59514;48.810;2.134;2022-10-17T14:40:55;100975.66;;;17.69;100.00
70781;BME280;59514;48.810;2.134;2022-10-17T14:43:28;100982.97;;;17.68;100.00